Time,TemperatureF,DewpointF,PressureIn,WindDirection,WindDirectionDegrees,WindSpeedMPH,WindSpeedGustMPH,Humidity,HourlyPrecipIn,Conditions,Clouds,dailyrainin,SolarRadiationWatts/m^2,SoftwareType,DateUTC
2013-06-15 01:33:00,47.0,30.0,-100.00,WSW,240,4.0,8.0,52,-99.99,,,-99.99,0.000000,,2013-06-15 07:33:00,
2013-06-15 02:33:00,45.0,31.0,-100.00,SE,130,2.0,7.0,58,-99.99,,,0.02,0.000000,,2013-06-15 08:33:00,
2013-06-15 02:43:00,45.0,31.0,-100.00,SE,130,2.0,7.0,58,-99.99,,,0.02,0.000000,,2013-06-15 08:43:00,
2013-06-15 04:34:00,43.0,30.0,-100.00,SE,146,3.0,5.0,59,-99.99,,,0.02,0.000000,,2013-06-15 10:34:00,
2013-06-15 04:44:00,43.0,30.0,-100.00,SE,146,3.0,5.0,59,-99.99,,,0.02,0.000000,,2013-06-15 10:44:00,
2013-06-15 04:53:00,43.0,30.0,-100.00,SE,146,3.0,5.0,59,-99.99,,,0.02,0.000000,,2013-06-15 10:53:00,
2013-06-15 05:33:00,43.0,29.0,-100.00,NNW,329,2.0,4.0,58,-99.99,,,0.01,0.000000,,2013-06-15 11:33:00,
2013-06-15 05:43:00,43.0,29.0,-100.00,NNW,329,2.0,4.0,58,-99.99,,,0.01,0.000000,,2013-06-15 11:43:00,
2013-06-15 05:53:00,43.0,29.0,-100.00,NNW,329,2.0,4.0,58,-99.99,,,0.01,0.000000,,2013-06-15 11:53:00,
2013-06-15 06:33:00,43.0,30.0,-100.00,NNW,338,2.0,4.0,60,-99.99,,,0.01,5.000000,,2013-06-15 12:33:00,
2013-06-15 07:33:00,48.0,30.0,-100.00,ESE,114,3.0,5.0,50,-99.99,,,0.01,100.000000,,2013-06-15 13:33:00,
2013-06-15 10:01:00,52.0,33.0,-100.00,ESE,112,3.0,7.0,48,-99.99,,,0.00,475.000000,,2013-06-15 16:01:00,
2013-06-15 10:33:00,54.0,34.0,-100.00,ESE,116,4.0,8.0,47,0.00,,,0.00,665.000000,,2013-06-15 16:33:00,
2013-06-15 10:43:00,54.0,34.0,-100.00,ESE,116,4.0,8.0,47,0.00,,,0.00,665.000000,,2013-06-15 16:43:00,
2013-06-15 10:53:00,54.0,34.0,-100.00,ESE,116,4.0,8.0,47,0.00,,,0.00,665.000000,,2013-06-15 16:53:00,
2013-06-15 11:01:00,54.0,34.0,-100.00,ESE,116,4.0,8.0,47,0.00,,,0.00,665.000000,,2013-06-15 17:01:00,
2013-06-15 11:43:00,60.0,36.0,-100.00,NNE,30,4.0,8.0,41,0.00,,,0.00,835.000000,,2013-06-15 17:43:00,
2013-06-15 11:52:00,60.0,36.0,-100.00,NNE,30,4.0,8.0,41,0.00,,,0.00,835.000000,,2013-06-15 17:52:00,
2013-06-15 12:01:00,60.0,36.0,-100.00,NNE,30,4.0,8.0,41,0.00,,,0.00,835.000000,,2013-06-15 18:01:00,
2013-06-15 12:33:00,62.0,35.0,-100.00,SE,131,5.0,9.0,36,0.00,,,0.00,962.000000,,2013-06-15 18:33:00,
2013-06-15 12:43:00,62.0,35.0,-100.00,SE,131,5.0,9.0,36,0.00,,,0.00,962.000000,,2013-06-15 18:43:00,
2013-06-15 12:53:00,62.0,35.0,-100.00,SE,131,5.0,9.0,36,0.00,,,0.00,962.000000,,2013-06-15 18:53:00,
2013-06-15 13:01:00,62.0,35.0,-100.00,SE,131,5.0,9.0,36,0.00,,,0.00,962.000000,,2013-06-15 19:01:00,
2013-06-15 13:33:00,64.0,35.0,-100.00,North,6,5.0,9.0,34,0.00,,,0.00,1036.000000,,2013-06-15 19:33:00,
2013-06-15 13:43:00,64.0,35.0,-100.00,North,6,5.0,9.0,34,0.00,,,0.00,1036.000000,,2013-06-15 19:43:00,
2013-06-15 13:53:00,64.0,35.0,-100.00,North,6,5.0,9.0,34,0.00,,,0.00,1036.000000,,2013-06-15 19:53:00,
2013-06-15 14:02:00,64.0,35.0,-100.00,North,6,5.0,9.0,34,0.00,,,0.00,1036.000000,,2013-06-15 20:02:00,
2013-06-15 14:33:00,67.0,28.0,-100.00,East,81,5.0,10.0,23,0.00,,,0.00,1067.000000,,2013-06-15 20:33:00,
2013-06-15 14:43:00,67.0,28.0,-100.00,East,81,5.0,10.0,23,0.00,,,0.00,1067.000000,,2013-06-15 20:43:00,
2013-06-15 14:53:00,67.0,28.0,-100.00,East,81,5.0,10.0,23,0.00,,,0.00,1067.000000,,2013-06-15 20:53:00,
2013-06-15 15:01:00,67.0,28.0,-100.00,East,81,5.0,10.0,23,0.00,,,0.00,1067.000000,,2013-06-15 21:01:00,
2013-06-15 15:42:00,68.0,24.0,-100.00,West,273,12.0,17.0,19,0.00,,,-99.99,1045.000000,,2013-06-15 21:42:00,
2013-06-15 15:53:00,68.0,24.0,-100.00,West,273,12.0,17.0,19,0.00,,,-99.99,1045.000000,,2013-06-15 21:53:00,
2013-06-15 16:01:00,68.0,24.0,-100.00,West,273,12.0,17.0,19,0.00,,,-99.99,1045.000000,,2013-06-15 22:01:00,
2013-06-15 16:33:00,70.0,25.0,-100.00,WNW,288,11.0,21.0,18,0.00,,,0.00,971.000000,,2013-06-15 22:33:00,
2013-06-15 16:43:00,70.0,25.0,-100.00,WNW,288,11.0,21.0,18,0.00,,,0.00,971.000000,,2013-06-15 22:43:00,
2013-06-15 16:53:00,70.0,25.0,-100.00,WNW,288,11.0,21.0,18,0.00,,,0.00,971.000000,,2013-06-15 22:53:00,
2013-06-15 17:01:00,70.0,25.0,-100.00,WNW,288,11.0,21.0,18,0.00,,,0.00,971.000000,,2013-06-15 23:01:00,
2013-06-15 17:33:00,71.0,21.0,-100.00,WNW,287,12.0,20.0,15,0.00,,,0.00,840.000000,,2013-06-15 23:33:00,
2013-06-15 17:43:00,71.0,21.0,-100.00,WNW,287,12.0,20.0,15,0.00,,,0.00,840.000000,,2013-06-15 23:43:00,
2013-06-15 17:53:00,71.0,21.0,-100.00,WNW,287,12.0,20.0,15,0.00,,,0.00,840.000000,,2013-06-15 23:53:00,
2013-06-15 18:01:00,71.0,21.0,-100.00,WNW,287,12.0,20.0,15,0.00,,,0.00,840.000000,,2013-06-16 00:01:00,
2013-06-15 18:34:00,72.0,23.0,-100.00,WNW,293,9.0,17.0,16,0.00,,,0.00,672.000000,,2013-06-16 00:34:00,
2013-06-15 18:43:00,72.0,23.0,-100.00,WNW,293,9.0,17.0,16,0.00,,,0.00,672.000000,,2013-06-16 00:43:00,
2013-06-15 18:52:00,72.0,23.0,-100.00,WNW,293,9.0,17.0,16,0.00,,,0.00,672.000000,,2013-06-16 00:52:00,
2013-06-15 19:01:00,72.0,23.0,-100.00,WNW,293,9.0,17.0,16,0.00,,,0.00,672.000000,,2013-06-16 01:01:00,
2013-06-15 19:43:00,70.0,25.0,-100.00,NNW,335,9.0,15.0,18,0.00,,,0.00,480.000000,,2013-06-16 01:43:00,
2013-06-15 19:53:00,70.0,25.0,-100.00,NNW,335,9.0,15.0,18,0.00,,,0.00,480.000000,,2013-06-16 01:53:00,
2013-06-15 20:01:00,70.0,25.0,-100.00,NNW,335,9.0,15.0,18,0.00,,,0.00,480.000000,,2013-06-16 02:01:00,
2013-06-15 20:33:00,67.0,30.0,-100.00,NNW,338,7.0,14.0,25,0.00,,,0.00,283.000000,,2013-06-16 02:33:00,
2013-06-15 20:43:00,67.0,30.0,-100.00,NNW,338,7.0,14.0,25,0.00,,,0.00,283.000000,,2013-06-16 02:43:00,
2013-06-15 20:53:00,67.0,30.0,-100.00,NNW,338,7.0,14.0,25,0.00,,,0.00,283.000000,,2013-06-16 02:53:00,
2013-06-15 21:01:00,67.0,30.0,-100.00,NNW,338,7.0,14.0,25,0.00,,,0.00,283.000000,,2013-06-16 03:01:00,
2013-06-15 21:43:00,62.0,27.0,-100.00,West,273,5.0,11.0,26,0.00,,,0.00,90.000000,,2013-06-16 03:43:00,
2013-06-15 21:53:00,62.0,27.0,-100.00,West,273,5.0,11.0,26,0.00,,,0.00,90.000000,,2013-06-16 03:53:00,
2013-06-15 22:01:00,62.0,27.0,-100.00,West,273,5.0,11.0,26,0.00,,,0.00,90.000000,,2013-06-16 04:01:00,
2013-06-15 22:34:00,61.0,28.0,-100.00,West,263,10.0,12.0,28,0.00,,,0.00,3.000000,,2013-06-16 04:34:00,
2013-06-15 22:43:00,61.0,28.0,-100.00,West,263,10.0,12.0,28,0.00,,,0.00,3.000000,,2013-06-16 04:43:00,
2013-06-15 23:34:00,60.0,30.0,-100.00,West,268,10.0,15.0,32,-99.99,,,0.00,0.000000,,2013-06-16 05:34:00,